sensor_id;sensor_type;location;lat;lon;timestamp;temperature;humidity
3542;DHT22;1785;47.388;8.538;2023-06-14T00:00:15;21.10;56.90
3542;DHT22;1785;47.388;8.538;2023-06-14T00:02:41;21.20;56.80
3542;DHT22;1785;47.388;8.538;2023-06-14T00:05:08;21.20;57.00
3542;DHT22;1785;47.388;8.538;2023-06-14T00:07:36;21.60;56.80
3542;DHT22;1785;47.388;8.538;2023-06-14T00:10:03;21.60;56.90
3542;DHT22;1785;47.388;8.538;2023-06-14T00:12:30;21.70;57.30
3542;DHT22;1785;47.388;8.538;2023-06-14T00:14:57;21.40;58.00
3542;DHT22;1785;47.388;8.538;2023-06-14T00:17:23;21.10;58.50
3542;DHT22;1785;47.388;8.538;2023-06-14T00:19:49;21.00;58.30
3542;DHT22;1785;47.388;8.538;2023-06-14T00:22:15;21.00;58.70
3542;DHT22;1785;47.388;8.538;2023-06-14T00:24:41;21.00;58.70
3542;DHT22;1785;47.388;8.538;2023-06-14T00:27:08;20.90;58.80
3542;DHT22;1785;47.388;8.538;2023-06-14T00:29:34;20.70;59.20
3542;DHT22;1785;47.388;8.538;2023-06-14T00:32:00;20.90;59.40
3542;DHT22;1785;47.388;8.538;2023-06-14T00:34:26;21.00;58.90
3542;DHT22;1785;47.388;8.538;2023-06-14T00:36:52;21.20;59.00
3542;DHT22;1785;47.388;8.538;2023-06-14T00:39:18;21.00;59.10
3542;DHT22;1785;47.388;8.538;2023-06-14T00:41:44;20.90;59.40
3542;DHT22;1785;47.388;8.538;2023-06-14T00:44:11;20.70;60.10
3542;DHT22;1785;47.388;8.538;2023-06-14T00:46:38;20.30;60.50
3542;DHT22;1785;47.388;8.538;2023-06-14T00:49:05;20.30;61.20
3542;DHT22;1785;47.388;8.538;2023-06-14T00:51:31;20.20;61.00
3542;DHT22;1785;47.388;8.538;2023-06-14T00:53:58;20.40;61.60
3542;DHT22;1785;47.388;8.538;2023-06-14T00:56:24;20.40;61.30
3542;DHT22;1785;47.388;8.538;2023-06-14T00:58:56;20.40;61.50
3542;DHT22;1785;47.388;8.538;2023-06-14T01:01:24;20.50;61.60
3542;DHT22;1785;47.388;8.538;2023-06-14T01:03:50;20.60;61.80
3542;DHT22;1785;47.388;8.538;2023-06-14T01:06:23;20.80;61.30
3542;DHT22;1785;47.388;8.538;2023-06-14T01:09:05;20.80;61.10
3542;DHT22;1785;47.388;8.538;2023-06-14T01:11:36;20.80;61.20
3542;DHT22;1785;47.388;8.538;2023-06-14T01:14:03;20.90;60.80
3542;DHT22;1785;47.388;8.538;2023-06-14T01:16:31;20.90;60.80
3542;DHT22;1785;47.388;8.538;2023-06-14T01:18:58;20.70;61.10
3542;DHT22;1785;47.388;8.538;2023-06-14T01:21:25;20.10;62.20
3542;DHT22;1785;47.388;8.538;2023-06-14T01:23:54;19.80;62.60
3542;DHT22;1785;47.388;8.538;2023-06-14T01:26:21;19.90;62.50
3542;DHT22;1785;47.388;8.538;2023-06-14T01:28:49;20.00;62.30
3542;DHT22;1785;47.388;8.538;2023-06-14T01:31:19;20.30;62.00
3542;DHT22;1785;47.388;8.538;2023-06-14T01:33:48;20.30;61.90
3542;DHT22;1785;47.388;8.538;2023-06-14T01:36:15;20.20;61.90
3542;DHT22;1785;47.388;8.538;2023-06-14T01:38:42;20.30;61.90
3542;DHT22;1785;47.388;8.538;2023-06-14T01:41:11;20.40;62.00
3542;DHT22;1785;47.388;8.538;2023-06-14T01:43:38;20.30;61.70
3542;DHT22;1785;47.388;8.538;2023-06-14T01:46:06;20.50;61.70
3542;DHT22;1785;47.388;8.538;2023-06-14T01:48:32;20.60;61.40
3542;DHT22;1785;47.388;8.538;2023-06-14T01:50:58;20.60;61.60
3542;DHT22;1785;47.388;8.538;2023-06-14T01:53:24;20.50;61.50
3542;DHT22;1785;47.388;8.538;2023-06-14T01:55:50;20.60;61.60
3542;DHT22;1785;47.388;8.538;2023-06-14T01:58:20;20.50;61.50
3542;DHT22;1785;47.388;8.538;2023-06-14T02:00:46;20.50;61.70
3542;DHT22;1785;47.388;8.538;2023-06-14T02:03:13;19.90;62.30
3542;DHT22;1785;47.388;8.538;2023-06-14T02:05:39;19.90;62.60
3542;DHT22;1785;47.388;8.538;2023-06-14T02:08:05;20.10;62.20
3542;DHT22;1785;47.388;8.538;2023-06-14T02:10:32;20.20;62.20
3542;DHT22;1785;47.388;8.538;2023-06-14T02:12:58;20.40;61.90
3542;DHT22;1785;47.388;8.538;2023-06-14T02:15:24;20.00;62.40
3542;DHT22;1785;47.388;8.538;2023-06-14T02:18:00;19.80;63.00
3542;DHT22;1785;47.388;8.538;2023-06-14T02:20:27;19.90;62.80
3542;DHT22;1785;47.388;8.538;2023-06-14T02:22:54;19.80;62.80
3542;DHT22;1785;47.388;8.538;2023-06-14T02:25:20;19.80;63.10
3542;DHT22;1785;47.388;8.538;2023-06-14T02:27:46;19.70;63.00
3542;DHT22;1785;47.388;8.538;2023-06-14T02:30:13;19.60;63.10
3542;DHT22;1785;47.388;8.538;2023-06-14T02:32:40;19.20;63.10
3542;DHT22;1785;47.388;8.538;2023-06-14T02:35:07;19.00;63.70
3542;DHT22;1785;47.388;8.538;2023-06-14T02:37:33;18.60;64.90
3542;DHT22;1785;47.388;8.538;2023-06-14T02:40:00;18.40;65.30
3542;DHT22;1785;47.388;8.538;2023-06-14T02:42:26;18.30;66.10
3542;DHT22;1785;47.388;8.538;2023-06-14T02:44:52;18.30;65.40
3542;DHT22;1785;47.388;8.538;2023-06-14T02:47:19;18.30;65.70
3542;DHT22;1785;47.388;8.538;2023-06-14T02:49:45;18.50;65.50
3542;DHT22;1785;47.388;8.538;2023-06-14T02:52:12;18.40;65.20
3542;DHT22;1785;47.388;8.538;2023-06-14T02:54:38;18.60;65.30
3542;DHT22;1785;47.388;8.538;2023-06-14T02:57:05;18.40;65.70
3542;DHT22;1785;47.388;8.538;2023-06-14T02:59:32;18.20;66.00
3542;DHT22;1785;47.388;8.538;2023-06-14T03:01:58;18.50;66.00
3542;DHT22;1785;47.388;8.538;2023-06-14T03:04:24;18.30;65.90
3542;DHT22;1785;47.388;8.538;2023-06-14T03:06:52;18.30;65.90
3542;DHT22;1785;47.388;8.538;2023-06-14T03:09:19;18.10;66.60
3542;DHT22;1785;47.388;8.538;2023-06-14T03:11:45;18.00;66.30
3542;DHT22;1785;47.388;8.538;2023-06-14T03:14:12;18.20;66.60
3542;DHT22;1785;47.388;8.538;2023-06-14T03:16:38;18.20;66.90
3542;DHT22;1785;47.388;8.538;2023-06-14T03:19:06;18.20;66.90
3542;DHT22;1785;47.388;8.538;2023-06-14T03:21:33;18.00;67.00
3542;DHT22;1785;47.388;8.538;2023-06-14T03:24:00;18.00;67.20
3542;DHT22;1785;47.388;8.538;2023-06-14T03:26:28;18.20;66.70
3542;DHT22;1785;47.388;8.538;2023-06-14T03:28:56;18.10;66.90
3542;DHT22;1785;47.388;8.538;2023-06-14T03:31:23;18.40;66.70
3542;DHT22;1785;47.388;8.538;2023-06-14T03:33:49;18.20;66.60
3542;DHT22;1785;47.388;8.538;2023-06-14T03:36:15;18.30;66.70
3542;DHT22;1785;47.388;8.538;2023-06-14T03:38:43;18.40;66.90
3542;DHT22;1785;47.388;8.538;2023-06-14T03:41:09;18.50;66.60
3542;DHT22;1785;47.388;8.538;2023-06-14T03:43:36;18.80;66.20
3542;DHT22;1785;47.388;8.538;2023-06-14T03:46:02;18.60;66.50
3542;DHT22;1785;47.388;8.538;2023-06-14T03:48:28;18.40;66.70
3542;DHT22;1785;47.388;8.538;2023-06-14T03:50:54;18.20;67.10
3542;DHT22;1785;47.388;8.538;2023-06-14T03:53:20;18.20;67.30
3542;DHT22;1785;47.388;8.538;2023-06-14T03:55:49;17.90;68.10
3542;DHT22;1785;47.388;8.538;2023-06-14T03:58:15;17.90;67.60
3542;DHT22;1785;47.388;8.538;2023-06-14T04:00:41;17.60;68.60
3542;DHT22;1785;47.388;8.538;2023-06-14T04:03:08;17.50;68.60
3542;DHT22;1785;47.388;8.538;2023-06-14T04:05:34;17.40;69.10
3542;DHT22;1785;47.388;8.538;2023-06-14T04:08:01;17.40;69.00
3542;DHT22;1785;47.388;8.538;2023-06-14T04:10:28;17.40;69.10
3542;DHT22;1785;47.388;8.538;2023-06-14T04:12:54;17.50;69.40
3542;DHT22;1785;47.388;8.538;2023-06-14T04:15:20;17.50;69.50
3542;DHT22;1785;47.388;8.538;2023-06-14T04:17:47;17.50;69.70
3542;DHT22;1785;47.388;8.538;2023-06-14T04:20:13;17.40;70.00
3542;DHT22;1785;47.388;8.538;2023-06-14T04:22:39;17.40;70.70
3542;DHT22;1785;47.388;8.538;2023-06-14T04:25:07;17.60;70.70
3542;DHT22;1785;47.388;8.538;2023-06-14T04:27:33;17.60;71.20
3542;DHT22;1785;47.388;8.538;2023-06-14T04:30:02;17.70;71.10
3542;DHT22;1785;47.388;8.538;2023-06-14T04:32:29;17.80;71.10
3542;DHT22;1785;47.388;8.538;2023-06-14T04:34:59;17.60;71.30
3542;DHT22;1785;47.388;8.538;2023-06-14T04:37:27;17.70;71.40
3542;DHT22;1785;47.388;8.538;2023-06-14T04:39:55;17.60;71.50
3542;DHT22;1785;47.388;8.538;2023-06-14T04:42:21;18.10;71.10
3542;DHT22;1785;47.388;8.538;2023-06-14T04:44:50;18.40;70.40
3542;DHT22;1785;47.388;8.538;2023-06-14T04:47:17;18.70;71.20
3542;DHT22;1785;47.388;8.538;2023-06-14T04:49:44;18.70;71.30
3542;DHT22;1785;47.388;8.538;2023-06-14T04:52:11;18.40;70.70
3542;DHT22;1785;47.388;8.538;2023-06-14T04:54:38;18.50;70.70
3542;DHT22;1785;47.388;8.538;2023-06-14T04:57:08;18.60;70.70
3542;DHT22;1785;47.388;8.538;2023-06-14T04:59:40;18.80;70.20
3542;DHT22;1785;47.388;8.538;2023-06-14T05:02:09;18.80;70.20
3542;DHT22;1785;47.388;8.538;2023-06-14T05:04:36;18.80;70.10
3542;DHT22;1785;47.388;8.538;2023-06-14T05:07:07;18.90;69.70
3542;DHT22;1785;47.388;8.538;2023-06-14T05:09:33;18.60;71.10
3542;DHT22;1785;47.388;8.538;2023-06-14T05:11:59;18.60;70.70
3542;DHT22;1785;47.388;8.538;2023-06-14T05:14:26;18.60;70.60
3542;DHT22;1785;47.388;8.538;2023-06-14T05:16:53;18.70;70.10
3542;DHT22;1785;47.388;8.538;2023-06-14T05:19:19;18.90;70.00
3542;DHT22;1785;47.388;8.538;2023-06-14T05:21:47;18.70;69.80
3542;DHT22;1785;47.388;8.538;2023-06-14T05:24:14;18.60;70.00
3542;DHT22;1785;47.388;8.538;2023-06-14T05:26:42;18.60;69.90
3542;DHT22;1785;47.388;8.538;2023-06-14T05:29:08;18.80;69.30
3542;DHT22;1785;47.388;8.538;2023-06-14T05:31:34;18.70;70.20
3542;DHT22;1785;47.388;8.538;2023-06-14T05:34:00;18.70;69.40
3542;DHT22;1785;47.388;8.538;2023-06-14T05:36:27;18.80;70.60
3542;DHT22;1785;47.388;8.538;2023-06-14T05:38:53;19.00;72.70
3542;DHT22;1785;47.388;8.538;2023-06-14T05:41:24;19.30;70.60
3542;DHT22;1785;47.388;8.538;2023-06-14T05:43:50;19.50;68.80
3542;DHT22;1785;47.388;8.538;2023-06-14T05:46:16;19.40;68.90
3542;DHT22;1785;47.388;8.538;2023-06-14T05:48:47;19.40;68.40
3542;DHT22;1785;47.388;8.538;2023-06-14T05:51:13;19.50;67.40
3542;DHT22;1785;47.388;8.538;2023-06-14T05:53:40;19.50;67.20
3542;DHT22;1785;47.388;8.538;2023-06-14T05:56:06;19.50;67.10
3542;DHT22;1785;47.388;8.538;2023-06-14T05:58:33;19.10;67.10
3542;DHT22;1785;47.388;8.538;2023-06-14T06:00:59;18.60;68.00
3542;DHT22;1785;47.388;8.538;2023-06-14T06:03:25;18.30;68.70
3542;DHT22;1785;47.388;8.538;2023-06-14T06:05:54;18.30;70.70
3542;DHT22;1785;47.388;8.538;2023-06-14T06:08:20;18.60;69.40
3542;DHT22;1785;47.388;8.538;2023-06-14T06:10:47;18.70;68.70
3542;DHT22;1785;47.388;8.538;2023-06-14T06:13:13;18.80;68.60
3542;DHT22;1785;47.388;8.538;2023-06-14T06:15:41;19.00;68.70
3542;DHT22;1785;47.388;8.538;2023-06-14T06:18:07;19.00;68.40
3542;DHT22;1785;47.388;8.538;2023-06-14T06:20:33;18.80;69.10
3542;DHT22;1785;47.388;8.538;2023-06-14T06:22:59;19.10;69.30
3542;DHT22;1785;47.388;8.538;2023-06-14T06:25:27;19.30;68.80
3542;DHT22;1785;47.388;8.538;2023-06-14T06:27:54;19.20;68.50
3542;DHT22;1785;47.388;8.538;2023-06-14T06:30:21;19.40;69.20
3542;DHT22;1785;47.388;8.538;2023-06-14T06:32:48;19.60;69.80
3542;DHT22;1785;47.388;8.538;2023-06-14T06:35:14;19.80;68.80
3542;DHT22;1785;47.388;8.538;2023-06-14T06:37:42;20.10;68.50
3542;DHT22;1785;47.388;8.538;2023-06-14T06:40:09;19.80;68.60
3542;DHT22;1785;47.388;8.538;2023-06-14T06:42:36;19.80;68.60
3542;DHT22;1785;47.388;8.538;2023-06-14T06:45:02;19.70;69.50
3542;DHT22;1785;47.388;8.538;2023-06-14T06:47:29;19.80;68.80
3542;DHT22;1785;47.388;8.538;2023-06-14T06:49:56;19.90;68.70
3542;DHT22;1785;47.388;8.538;2023-06-14T06:52:22;20.10;68.70
3542;DHT22;1785;47.388;8.538;2023-06-14T06:54:48;20.10;68.60
3542;DHT22;1785;47.388;8.538;2023-06-14T06:57:16;20.20;69.00
3542;DHT22;1785;47.388;8.538;2023-06-14T06:59:42;20.10;69.00
3542;DHT22;1785;47.388;8.538;2023-06-14T07:02:08;20.30;69.10
3542;DHT22;1785;47.388;8.538;2023-06-14T07:04:34;20.50;68.40
3542;DHT22;1785;47.388;8.538;2023-06-14T07:07:01;20.50;68.40
3542;DHT22;1785;47.388;8.538;2023-06-14T07:09:27;20.40;68.10
3542;DHT22;1785;47.388;8.538;2023-06-14T07:11:53;20.40;68.00
3542;DHT22;1785;47.388;8.538;2023-06-14T07:14:19;20.60;67.60
3542;DHT22;1785;47.388;8.538;2023-06-14T07:16:45;20.50;67.00
3542;DHT22;1785;47.388;8.538;2023-06-14T07:19:12;20.50;67.00
3542;DHT22;1785;47.388;8.538;2023-06-14T07:21:38;20.50;67.10
3542;DHT22;1785;47.388;8.538;2023-06-14T07:24:05;20.60;66.70
3542;DHT22;1785;47.388;8.538;2023-06-14T07:26:33;20.60;66.60
3542;DHT22;1785;47.388;8.538;2023-06-14T07:28:59;20.70;66.20
3542;DHT22;1785;47.388;8.538;2023-06-14T07:31:26;20.80;66.80
3542;DHT22;1785;47.388;8.538;2023-06-14T07:33:52;20.90;66.20
3542;DHT22;1785;47.388;8.538;2023-06-14T07:36:18;20.90;66.30
3542;DHT22;1785;47.388;8.538;2023-06-14T07:38:44;21.20;66.00
3542;DHT22;1785;47.388;8.538;2023-06-14T07:41:12;21.20;65.50
3542;DHT22;1785;47.388;8.538;2023-06-14T07:43:38;21.20;65.40
3542;DHT22;1785;47.388;8.538;2023-06-14T07:46:04;21.20;64.90
3542;DHT22;1785;47.388;8.538;2023-06-14T07:48:31;21.00;64.80
3542;DHT22;1785;47.388;8.538;2023-06-14T07:50:57;20.90;65.50
3542;DHT22;1785;47.388;8.538;2023-06-14T07:53:23;21.20;66.00
3542;DHT22;1785;47.388;8.538;2023-06-14T07:55:50;21.40;65.20
3542;DHT22;1785;47.388;8.538;2023-06-14T07:58:17;21.20;63.90
3542;DHT22;1785;47.388;8.538;2023-06-14T08:00:44;21.20;64.20
3542;DHT22;1785;47.388;8.538;2023-06-14T08:03:11;21.10;64.80
3542;DHT22;1785;47.388;8.538;2023-06-14T08:05:37;21.40;64.80
3542;DHT22;1785;47.388;8.538;2023-06-14T08:08:04;21.60;64.20
3542;DHT22;1785;47.388;8.538;2023-06-14T08:10:30;21.50;63.40
3542;DHT22;1785;47.388;8.538;2023-06-14T08:12:56;21.60;62.90
3542;DHT22;1785;47.388;8.538;2023-06-14T08:15:23;21.80;61.90
3542;DHT22;1785;47.388;8.538;2023-06-14T08:17:49;22.10;62.00
3542;DHT22;1785;47.388;8.538;2023-06-14T08:20:16;22.30;62.00
3542;DHT22;1785;47.388;8.538;2023-06-14T08:22:43;22.40;61.10
3542;DHT22;1785;47.388;8.538;2023-06-14T08:25:10;22.20;61.50
3542;DHT22;1785;47.388;8.538;2023-06-14T08:27:37;22.20;62.60
3542;DHT22;1785;47.388;8.538;2023-06-14T08:30:04;22.40;63.20
3542;DHT22;1785;47.388;8.538;2023-06-14T08:32:31;22.70;63.20
3542;DHT22;1785;47.388;8.538;2023-06-14T08:34:57;22.50;63.60
3542;DHT22;1785;47.388;8.538;2023-06-14T08:37:23;22.40;64.20
3542;DHT22;1785;47.388;8.538;2023-06-14T08:39:50;22.60;63.80
3542;DHT22;1785;47.388;8.538;2023-06-14T08:42:19;22.80;61.70
3542;DHT22;1785;47.388;8.538;2023-06-14T08:44:47;22.70;61.30
3542;DHT22;1785;47.388;8.538;2023-06-14T08:47:14;22.60;61.80
3542;DHT22;1785;47.388;8.538;2023-06-14T08:49:46;22.60;61.00
3542;DHT22;1785;47.388;8.538;2023-06-14T08:52:13;22.70;61.40
3542;DHT22;1785;47.388;8.538;2023-06-14T08:54:44;23.00;61.60
3542;DHT22;1785;47.388;8.538;2023-06-14T08:57:14;23.10;61.60
3542;DHT22;1785;47.388;8.538;2023-06-14T08:59:47;23.00;61.20
3542;DHT22;1785;47.388;8.538;2023-06-14T09:02:15;23.10;60.30
3542;DHT22;1785;47.388;8.538;2023-06-14T09:04:44;23.10;61.10
3542;DHT22;1785;47.388;8.538;2023-06-14T09:07:10;23.30;61.10
3542;DHT22;1785;47.388;8.538;2023-06-14T09:09:39;23.30;60.50
3542;DHT22;1785;47.388;8.538;2023-06-14T09:12:08;23.20;60.10
3542;DHT22;1785;47.388;8.538;2023-06-14T09:14:35;23.10;59.80
3542;DHT22;1785;47.388;8.538;2023-06-14T09:17:05;23.30;59.70
3542;DHT22;1785;47.388;8.538;2023-06-14T09:19:31;23.50;59.60
3542;DHT22;1785;47.388;8.538;2023-06-14T09:21:58;23.80;59.50
3542;DHT22;1785;47.388;8.538;2023-06-14T09:24:24;23.80;59.80
3542;DHT22;1785;47.388;8.538;2023-06-14T09:26:51;23.60;59.70
3542;DHT22;1785;47.388;8.538;2023-06-14T09:29:18;23.70;59.70
3542;DHT22;1785;47.388;8.538;2023-06-14T09:31:46;24.00;59.90
3542;DHT22;1785;47.388;8.538;2023-06-14T09:34:13;23.90;59.70
3542;DHT22;1785;47.388;8.538;2023-06-14T09:36:40;23.90;59.80
3542;DHT22;1785;47.388;8.538;2023-06-14T09:39:08;23.90;59.70
3542;DHT22;1785;47.388;8.538;2023-06-14T09:41:35;24.00;60.00
3542;DHT22;1785;47.388;8.538;2023-06-14T09:44:03;24.00;59.80
3542;DHT22;1785;47.388;8.538;2023-06-14T09:46:30;24.20;60.20
3542;DHT22;1785;47.388;8.538;2023-06-14T09:48:57;24.40;60.10
3542;DHT22;1785;47.388;8.538;2023-06-14T09:51:24;24.40;59.30
3542;DHT22;1785;47.388;8.538;2023-06-14T09:53:50;24.40;59.80
3542;DHT22;1785;47.388;8.538;2023-06-14T09:56:22;24.60;59.00
3542;DHT22;1785;47.388;8.538;2023-06-14T09:58:50;24.20;58.60
3542;DHT22;1785;47.388;8.538;2023-06-14T10:01:21;24.20;59.00
3542;DHT22;1785;47.388;8.538;2023-06-14T10:03:50;24.40;58.80
3542;DHT22;1785;47.388;8.538;2023-06-14T10:06:16;24.80;58.50
3542;DHT22;1785;47.388;8.538;2023-06-14T10:08:43;24.70;58.10
3542;DHT22;1785;47.388;8.538;2023-06-14T10:11:11;24.70;58.60
3542;DHT22;1785;47.388;8.538;2023-06-14T10:13:39;25.00;59.50
3542;DHT22;1785;47.388;8.538;2023-06-14T10:16:10;25.10;58.60
3542;DHT22;1785;47.388;8.538;2023-06-14T10:18:44;25.00;58.10
3542;DHT22;1785;47.388;8.538;2023-06-14T10:21:16;25.00;57.60
3542;DHT22;1785;47.388;8.538;2023-06-14T10:23:46;25.00;58.50
3542;DHT22;1785;47.388;8.538;2023-06-14T10:26:20;25.00;58.00
3542;DHT22;1785;47.388;8.538;2023-06-14T10:28:57;25.10;57.80
3542;DHT22;1785;47.388;8.538;2023-06-14T10:31:39;25.20;57.30
3542;DHT22;1785;47.388;8.538;2023-06-14T10:34:06;25.50;57.40
3542;DHT22;1785;47.388;8.538;2023-06-14T10:36:32;25.60;57.20
3542;DHT22;1785;47.388;8.538;2023-06-14T10:39:03;25.80;57.70
3542;DHT22;1785;47.388;8.538;2023-06-14T10:41:32;25.60;57.10
3542;DHT22;1785;47.388;8.538;2023-06-14T10:47:07;25.40;56.40
3542;DHT22;1785;47.388;8.538;2023-06-14T10:49:41;25.40;56.20
3542;DHT22;1785;47.388;8.538;2023-06-14T10:52:12;25.30;56.30
3542;DHT22;1785;47.388;8.538;2023-06-14T10:55:00;25.70;56.10
3542;DHT22;1785;47.388;8.538;2023-06-14T10:57:27;26.00;56.50
3542;DHT22;1785;47.388;8.538;2023-06-14T10:59:53;26.20;54.70
3542;DHT22;1785;47.388;8.538;2023-06-14T11:05:29;26.10;53.60
3542;DHT22;1785;47.388;8.538;2023-06-14T11:08:13;26.30;54.20
3542;DHT22;1785;47.388;8.538;2023-06-14T11:10:43;26.30;54.10
3542;DHT22;1785;47.388;8.538;2023-06-14T11:13:11;26.50;54.60
3542;DHT22;1785;47.388;8.538;2023-06-14T11:15:38;26.50;53.20
3542;DHT22;1785;47.388;8.538;2023-06-14T11:18:05;26.30;54.00
3542;DHT22;1785;47.388;8.538;2023-06-14T11:20:34;26.50;53.00
3542;DHT22;1785;47.388;8.538;2023-06-14T11:23:01;26.40;52.10
3542;DHT22;1785;47.388;8.538;2023-06-14T11:25:27;26.60;53.60
3542;DHT22;1785;47.388;8.538;2023-06-14T11:27:54;26.90;53.90
3542;DHT22;1785;47.388;8.538;2023-06-14T11:30:21;27.00;53.30
3542;DHT22;1785;47.388;8.538;2023-06-14T11:32:47;27.20;53.50
3542;DHT22;1785;47.388;8.538;2023-06-14T11:35:14;27.20;54.40
3542;DHT22;1785;47.388;8.538;2023-06-14T11:37:41;27.10;53.80
3542;DHT22;1785;47.388;8.538;2023-06-14T11:40:09;27.10;54.70
3542;DHT22;1785;47.388;8.538;2023-06-14T11:42:38;26.80;54.10
3542;DHT22;1785;47.388;8.538;2023-06-14T11:45:07;26.40;54.60
3542;DHT22;1785;47.388;8.538;2023-06-14T11:47:33;26.30;55.70
3542;DHT22;1785;47.388;8.538;2023-06-14T11:50:00;26.60;55.70
3542;DHT22;1785;47.388;8.538;2023-06-14T11:52:26;26.80;55.70
3542;DHT22;1785;47.388;8.538;2023-06-14T11:54:53;27.30;55.90
3542;DHT22;1785;47.388;8.538;2023-06-14T11:57:20;27.20;55.00
3542;DHT22;1785;47.388;8.538;2023-06-14T11:59:46;27.20;54.60
3542;DHT22;1785;47.388;8.538;2023-06-14T12:02:14;27.10;53.90
3542;DHT22;1785;47.388;8.538;2023-06-14T12:04:41;27.30;54.20
3542;DHT22;1785;47.388;8.538;2023-06-14T12:07:11;27.50;53.50
3542;DHT22;1785;47.388;8.538;2023-06-14T12:09:40;27.70;53.20
3542;DHT22;1785;47.388;8.538;2023-06-14T12:12:09;27.60;53.00
3542;DHT22;1785;47.388;8.538;2023-06-14T12:14:36;27.80;53.40
3542;DHT22;1785;47.388;8.538;2023-06-14T12:17:06;27.80;53.70
3542;DHT22;1785;47.388;8.538;2023-06-14T12:19:32;27.90;53.60
3542;DHT22;1785;47.388;8.538;2023-06-14T12:21:59;27.90;54.40
3542;DHT22;1785;47.388;8.538;2023-06-14T12:24:28;28.00;53.20
3542;DHT22;1785;47.388;8.538;2023-06-14T12:26:57;27.90;53.30
3542;DHT22;1785;47.388;8.538;2023-06-14T12:29:26;27.80;54.10
3542;DHT22;1785;47.388;8.538;2023-06-14T12:31:52;27.80;53.20
3542;DHT22;1785;47.388;8.538;2023-06-14T12:34:20;27.70;54.20
3542;DHT22;1785;47.388;8.538;2023-06-14T12:36:46;27.30;54.50
3542;DHT22;1785;47.388;8.538;2023-06-14T12:39:12;27.40;54.80
3542;DHT22;1785;47.388;8.538;2023-06-14T12:41:39;27.20;54.90
3542;DHT22;1785;47.388;8.538;2023-06-14T12:44:07;27.60;54.50
3542;DHT22;1785;47.388;8.538;2023-06-14T12:46:34;27.90;54.20
3542;DHT22;1785;47.388;8.538;2023-06-14T12:49:00;27.60;54.10
3542;DHT22;1785;47.388;8.538;2023-06-14T12:51:26;27.30;54.00
3542;DHT22;1785;47.388;8.538;2023-06-14T12:53:53;27.50;54.10
3542;DHT22;1785;47.388;8.538;2023-06-14T12:56:19;27.40;53.50
3542;DHT22;1785;47.388;8.538;2023-06-14T12:58:45;27.20;53.60
3542;DHT22;1785;47.388;8.538;2023-06-14T13:01:14;26.80;53.70
3542;DHT22;1785;47.388;8.538;2023-06-14T13:03:41;26.70;54.00
3542;DHT22;1785;47.388;8.538;2023-06-14T13:06:07;27.20;54.00
3542;DHT22;1785;47.388;8.538;2023-06-14T13:08:33;27.50;53.60
3542;DHT22;1785;47.388;8.538;2023-06-14T13:10:59;27.90;53.10
3542;DHT22;1785;47.388;8.538;2023-06-14T13:13:25;28.00;53.10
3542;DHT22;1785;47.388;8.538;2023-06-14T13:15:52;28.20;52.20
3542;DHT22;1785;47.388;8.538;2023-06-14T13:18:18;28.10;52.60
3542;DHT22;1785;47.388;8.538;2023-06-14T13:20:45;28.00;52.70
3542;DHT22;1785;47.388;8.538;2023-06-14T13:23:11;28.20;52.70
3542;DHT22;1785;47.388;8.538;2023-06-14T13:25:38;28.40;52.40
3542;DHT22;1785;47.388;8.538;2023-06-14T13:28:05;28.40;52.40
3542;DHT22;1785;47.388;8.538;2023-06-14T13:30:31;28.50;52.80
3542;DHT22;1785;47.388;8.538;2023-06-14T13:32:58;27.90;52.10
3542;DHT22;1785;47.388;8.538;2023-06-14T13:35:24;27.40;52.70
3542;DHT22;1785;47.388;8.538;2023-06-14T13:37:51;27.30;53.70
3542;DHT22;1785;47.388;8.538;2023-06-14T13:40:17;27.60;52.70
3542;DHT22;1785;47.388;8.538;2023-06-14T13:42:43;27.90;52.90
3542;DHT22;1785;47.388;8.538;2023-06-14T13:45:11;27.90;52.70
3542;DHT22;1785;47.388;8.538;2023-06-14T13:47:37;28.00;52.80
3542;DHT22;1785;47.388;8.538;2023-06-14T13:50:04;28.30;53.00
3542;DHT22;1785;47.388;8.538;2023-06-14T13:52:30;28.60;53.80
3542;DHT22;1785;47.388;8.538;2023-06-14T13:54:57;28.90;52.80
3542;DHT22;1785;47.388;8.538;2023-06-14T13:57:24;29.10;53.10
3542;DHT22;1785;47.388;8.538;2023-06-14T13:59:50;29.00;52.30
3542;DHT22;1785;47.388;8.538;2023-06-14T14:02:16;28.80;51.60
3542;DHT22;1785;47.388;8.538;2023-06-14T14:04:42;28.70;52.60
3542;DHT22;1785;47.388;8.538;2023-06-14T14:07:08;28.30;52.30
3542;DHT22;1785;47.388;8.538;2023-06-14T14:09:35;27.90;52.40
3542;DHT22;1785;47.388;8.538;2023-06-14T14:12:02;28.10;53.40
3542;DHT22;1785;47.388;8.538;2023-06-14T14:14:28;28.80;53.90
3542;DHT22;1785;47.388;8.538;2023-06-14T14:16:54;29.30;52.60
3542;DHT22;1785;47.388;8.538;2023-06-14T14:19:21;29.70;51.50
3542;DHT22;1785;47.388;8.538;2023-06-14T14:21:47;29.20;51.40
3542;DHT22;1785;47.388;8.538;2023-06-14T14:24:13;29.60;51.50
3542;DHT22;1785;47.388;8.538;2023-06-14T14:26:39;29.80;50.20
3542;DHT22;1785;47.388;8.538;2023-06-14T14:29:06;29.30;51.40
3542;DHT22;1785;47.388;8.538;2023-06-14T14:31:34;29.00;51.60
3542;DHT22;1785;47.388;8.538;2023-06-14T14:34:00;29.40;51.80
3542;DHT22;1785;47.388;8.538;2023-06-14T14:36:26;29.80;51.50
3542;DHT22;1785;47.388;8.538;2023-06-14T14:38:52;29.20;49.80
3542;DHT22;1785;47.388;8.538;2023-06-14T14:41:18;28.90;50.90
3542;DHT22;1785;47.388;8.538;2023-06-14T14:43:44;28.90;50.00
3542;DHT22;1785;47.388;8.538;2023-06-14T14:46:11;29.40;50.40
3542;DHT22;1785;47.388;8.538;2023-06-14T14:48:37;29.60;49.80
3542;DHT22;1785;47.388;8.538;2023-06-14T14:51:03;30.00;49.90
3542;DHT22;1785;47.388;8.538;2023-06-14T14:53:29;30.50;49.70
3542;DHT22;1785;47.388;8.538;2023-06-14T14:55:56;30.60;49.50
3542;DHT22;1785;47.388;8.538;2023-06-14T14:58:22;30.70;49.90
3542;DHT22;1785;47.388;8.538;2023-06-14T15:00:48;31.00;49.60
3542;DHT22;1785;47.388;8.538;2023-06-14T15:03:15;30.90;47.60
3542;DHT22;1785;47.388;8.538;2023-06-14T15:05:41;30.60;47.50
3542;DHT22;1785;47.388;8.538;2023-06-14T15:08:07;30.60;49.40
3542;DHT22;1785;47.388;8.538;2023-06-14T15:10:37;30.90;50.20
3542;DHT22;1785;47.388;8.538;2023-06-14T15:13:06;31.40;50.40
3542;DHT22;1785;47.388;8.538;2023-06-14T15:15:33;31.30;49.80
3542;DHT22;1785;47.388;8.538;2023-06-14T15:17:59;31.00;51.30
3542;DHT22;1785;47.388;8.538;2023-06-14T15:20:26;30.40;50.80
3542;DHT22;1785;47.388;8.538;2023-06-14T15:22:53;30.60;51.00
3542;DHT22;1785;47.388;8.538;2023-06-14T15:25:21;30.60;50.90
3542;DHT22;1785;47.388;8.538;2023-06-14T15:27:47;30.90;50.90
3542;DHT22;1785;47.388;8.538;2023-06-14T15:30:13;30.90;50.60
3542;DHT22;1785;47.388;8.538;2023-06-14T15:32:40;31.50;50.70
3542;DHT22;1785;47.388;8.538;2023-06-14T15:35:07;32.00;50.40
3542;DHT22;1785;47.388;8.538;2023-06-14T15:37:34;32.20;50.00
3542;DHT22;1785;47.388;8.538;2023-06-14T15:40:01;32.60;50.10
3542;DHT22;1785;47.388;8.538;2023-06-14T15:42:27;32.60;49.60
3542;DHT22;1785;47.388;8.538;2023-06-14T15:44:53;32.50;50.20
3542;DHT22;1785;47.388;8.538;2023-06-14T15:47:19;32.60;50.30
3542;DHT22;1785;47.388;8.538;2023-06-14T15:49:45;31.70;49.60
3542;DHT22;1785;47.388;8.538;2023-06-14T15:52:11;31.20;50.70
3542;DHT22;1785;47.388;8.538;2023-06-14T15:54:38;31.50;50.60
3542;DHT22;1785;47.388;8.538;2023-06-14T15:57:04;31.80;50.60
3542;DHT22;1785;47.388;8.538;2023-06-14T15:59:31;32.20;50.10
3542;DHT22;1785;47.388;8.538;2023-06-14T16:01:57;32.00;50.00
3542;DHT22;1785;47.388;8.538;2023-06-14T16:04:23;31.50;50.70
3542;DHT22;1785;47.388;8.538;2023-06-14T16:06:49;31.70;50.70